createdAt,value
2022-08-18T00:02:31.119Z,51.49
2022-08-18T00:07:29.653Z,51.60
2022-08-18T00:12:36.930Z,51.33
2022-08-18T00:17:30.841Z,50.83
2022-08-18T00:22:23.983Z,50.95
2022-08-18T00:27:23.121Z,50.67
2022-08-18T00:32:23.896Z,50.84
2022-08-18T00:37:16.688Z,51.42
2022-08-18T00:42:34.305Z,51.14
2022-08-18T00:47:37.063Z,51.25
2022-08-18T00:52:37.600Z,51.55
2022-08-18T00:57:33.747Z,51.39
2022-08-18T01:02:36.246Z,51.43
2022-08-18T01:07:36.659Z,50.88
2022-08-18T01:12:45.858Z,51.02
2022-08-18T01:17:57.687Z,50.86
2022-08-18T01:23:08.208Z,50.33
2022-08-18T01:28:03.128Z,50.39
2022-08-18T01:32:56.957Z,50.72
2022-08-18T01:37:50.218Z,50.88
2022-08-18T01:42:46.742Z,50.79
2022-08-18T01:47:47.121Z,50.46
2022-08-18T01:52:41.525Z,50.21
2022-08-18T01:57:43.532Z,50.42
2022-08-18T02:02:36.821Z,50.29
2022-08-18T02:07:36.146Z,50.11
2022-08-18T02:12:30.652Z,50.50
2022-08-18T02:17:24.700Z,51.12
2022-08-18T02:22:20.917Z,51.06
2022-08-18T02:27:16.471Z,50.95
2022-08-18T02:32:16.249Z,50.62
2022-08-18T02:37:14.889Z,50.88
2022-08-18T02:42:09.942Z,51.38
2022-08-18T02:47:04.084Z,51.40
2022-08-18T02:51:57.693Z,51.26
2022-08-18T02:56:52.529Z,52.01
2022-08-18T03:01:48.678Z,51.91
2022-08-18T03:06:42.580Z,51.93
2022-08-18T03:11:39.958Z,52.29
2022-08-18T03:16:35.124Z,52.88
2022-08-18T03:21:31.659Z,53.32
2022-08-18T03:26:26.129Z,53.26
2022-08-18T03:31:23.623Z,53.03
2022-08-18T03:36:24.539Z,53.51
2022-08-18T03:41:43.964Z,53.90
2022-08-18T03:46:37.333Z,54.18
2022-08-18T03:51:33.618Z,53.97
2022-08-18T03:56:30.451Z,54.63
2022-08-18T04:01:27.391Z,54.56
2022-08-18T04:06:30.416Z,54.48
2022-08-18T04:11:25.044Z,54.79
2022-08-18T04:16:18.109Z,55.17
2022-08-18T04:21:13.972Z,54.39
2022-08-18T04:26:09.689Z,54.47
2022-08-18T04:31:15.545Z,53.71
2022-08-18T04:36:18.732Z,54.10
2022-08-18T04:41:14.520Z,54.44
2022-08-18T04:46:08.051Z,54.29
2022-08-18T04:52:36.588Z,53.79
2022-08-18T04:56:35.828Z,54.23
2022-08-18T05:01:31.952Z,54.29
2022-08-18T05:06:28.992Z,53.98
2022-08-18T05:11:24.001Z,54.43
2022-08-18T05:16:27.740Z,54.41
2022-08-18T05:21:24.433Z,53.90
2022-08-18T05:26:19.939Z,54.04
2022-08-18T05:31:20.257Z,53.85
2022-08-18T05:36:16.165Z,53.87
2022-08-18T05:41:14.997Z,53.71
2022-08-18T05:46:11.544Z,53.63
2022-08-18T05:51:27.308Z,53.68
2022-08-18T05:56:45.049Z,53.29
2022-08-18T06:01:46.559Z,53.68
2022-08-18T06:06:46.918Z,54.18
2022-08-18T06:11:40.575Z,53.62
2022-08-18T06:17:07.159Z,56.51
2022-08-18T06:22:52.510Z,56.63
2022-08-18T06:27:56.669Z,57.94
2022-08-18T06:33:01.945Z,59.10
2022-08-18T06:38:38.327Z,58.91
2022-08-18T06:43:33.143Z,59.14
2022-08-18T06:48:46.555Z,59.19
2022-08-18T06:54:03.192Z,58.14
2022-08-18T06:59:15.321Z,58.63
2022-08-18T07:04:09.677Z,58.60
2022-08-18T07:09:22.133Z,59.25
2022-08-18T07:14:26.491Z,58.48
2022-08-18T07:19:22.227Z,57.60
2022-08-18T07:24:30.151Z,57.93
2022-08-18T07:29:24.184Z,58.14
2022-08-18T07:34:37.438Z,57.62
2022-08-18T07:39:32.887Z,58.56
2022-08-18T07:44:56.114Z,59.63
2022-08-18T07:50:15.666Z,59.29
2022-08-18T07:55:41.262Z,59.86
2022-08-18T08:00:59.320Z,59.41
2022-08-18T08:06:21.554Z,59.58
2022-08-18T08:11:37.845Z,59.54
2022-08-18T08:16:41.396Z,59.66
2022-08-18T08:21:52.958Z,60.29
2022-08-18T08:26:46.740Z,60.33
2022-08-18T08:31:53.687Z,60.13
2022-08-18T08:36:49.749Z,59.37
2022-08-18T08:42:29.595Z,60.46
2022-08-18T08:47:26.064Z,59.88
2022-08-18T08:52:31.348Z,59.42
2022-08-18T08:57:30.837Z,59.11
2022-08-18T09:02:47.102Z,59.84
2022-08-18T09:07:55.675Z,59.52
2022-08-18T09:13:03.236Z,59.94
2022-08-18T09:18:06.676Z,61.02
2022-08-18T09:23:09.580Z,61.70
2022-08-18T09:28:16.893Z,60.92
2022-08-18T09:34:07.167Z,60.01
2022-08-18T09:39:41.547Z,60.59
2022-08-18T09:44:46.995Z,60.35
2022-08-18T09:49:47.789Z,60.28
2022-08-18T09:55:01.430Z,60.29
2022-08-18T10:00:24.391Z,56.76
2022-08-18T10:05:22.494Z,55.39
2022-08-18T10:16:10.230Z,55.25
2022-08-18T10:21:22.770Z,55.01
2022-08-18T10:26:32.866Z,55.28
2022-08-18T10:31:28.093Z,55.43
2022-08-18T10:36:53.564Z,55.40
2022-08-18T10:41:58.517Z,55.39
2022-08-18T10:46:59.189Z,54.75
2022-08-18T10:51:59.659Z,55.25
2022-08-18T10:57:06.071Z,55.08
2022-08-18T11:03:13.937Z,54.48
2022-08-18T11:08:16.373Z,54.50
2022-08-18T11:13:36.414Z,54.99
2022-08-18T11:18:42.911Z,55.88
2022-08-18T11:23:37.785Z,56.00
2022-08-18T11:28:35.932Z,55.88
2022-08-18T11:33:33.621Z,55.03
2022-08-18T11:38:33.135Z,54.69
2022-08-18T11:43:41.884Z,54.68
2022-08-18T11:48:49.792Z,54.38
2022-08-18T11:53:55.605Z,54.70
2022-08-18T11:58:57.342Z,53.97
2022-08-18T12:03:52.852Z,54.05
2022-08-18T12:09:01.368Z,54.55
2022-08-18T12:14:30.179Z,54.79
2022-08-18T12:19:24.786Z,51.98
2022-08-18T12:24:26.418Z,52.10
2022-08-18T12:29:24.535Z,51.68
2022-08-18T12:34:27.347Z,51.60
2022-08-18T12:39:21.605Z,51.01
2022-08-18T12:44:16.181Z,50.56
2022-08-18T12:49:24.345Z,50.51
2022-08-18T12:54:18.652Z,50.46
2022-08-18T12:59:14.868Z,49.94
2022-08-18T13:09:35.089Z,49.60
2022-08-18T13:14:35.831Z,49.32
2022-08-18T13:19:32.083Z,50.26
2022-08-18T13:24:27.382Z,49.97
2022-08-18T13:29:22.068Z,49.95
2022-08-18T13:34:18.291Z,49.67
2022-08-18T13:39:18.236Z,50.04
2022-08-18T13:44:13.779Z,50.18
2022-08-18T13:49:18.596Z,50.44
2022-08-18T13:54:31.440Z,50.24
2022-08-18T13:59:28.192Z,50.74
2022-08-18T14:04:23.211Z,50.75
2022-08-18T14:09:27.808Z,50.96
2022-08-18T14:14:30.291Z,51.00
2022-08-18T14:19:42.947Z,50.97
2022-08-18T14:24:55.336Z,51.45
2022-08-18T14:29:50.479Z,50.86
2022-08-18T14:34:50.747Z,50.96
2022-08-18T14:39:47.848Z,51.09
2022-08-18T14:44:45.830Z,51.45
2022-08-18T14:49:47.824Z,51.08
2022-08-18T14:54:50.978Z,50.61
2022-08-18T14:59:44.823Z,50.56
2022-08-18T15:04:38.533Z,50.45
2022-08-18T15:09:50.479Z,51.01
2022-08-18T15:15:05.876Z,51.22
2022-08-18T15:20:01.549Z,50.75
2022-08-18T15:25:13.652Z,51.33
2022-08-18T15:30:11.799Z,50.68
2022-08-18T15:35:11.918Z,50.95
2022-08-18T15:40:31.161Z,51.00
2022-08-18T15:45:35.411Z,51.58
2022-08-18T15:50:29.608Z,51.69
2022-08-18T15:55:26.493Z,51.14
2022-08-18T16:00:21.679Z,51.95
2022-08-18T16:05:24.500Z,52.17
2022-08-18T16:10:21.191Z,52.25
2022-08-18T16:15:21.112Z,52.02
2022-08-18T16:20:15.283Z,51.89
2022-08-18T16:25:11.091Z,52.16
2022-08-18T16:30:06.555Z,52.23
2022-08-18T16:35:00.664Z,52.57
2022-08-18T16:39:55.260Z,52.30
2022-08-18T16:44:50.099Z,51.93
2022-08-18T16:49:46.322Z,51.74
2022-08-18T16:54:39.799Z,51.93
2022-08-18T16:59:52.631Z,52.20
2022-08-18T17:04:46.682Z,52.00
2022-08-18T17:09:41.684Z,52.15
2022-08-18T17:14:35.475Z,51.56
2022-08-18T17:19:34.547Z,51.99
2022-08-18T17:24:31.894Z,52.34
2022-08-18T17:29:48.532Z,52.16
2022-08-18T17:34:52.591Z,52.30
2022-08-18T17:40:12.402Z,52.20
2022-08-18T17:45:11.616Z,53.03
2022-08-18T17:50:42.803Z,52.04
2022-08-18T17:55:48.251Z,52.57
2022-08-18T18:00:42.746Z,52.69
2022-08-18T18:05:43.419Z,52.87
2022-08-18T18:11:03.928Z,52.94
2022-08-18T18:16:01.647Z,53.11
2022-08-18T18:21:09.685Z,53.64
2022-08-18T18:26:23.064Z,54.38
2022-08-18T18:31:39.659Z,54.44
2022-08-18T18:36:47.504Z,53.68
2022-08-18T18:41:41.972Z,53.99
2022-08-18T18:46:45.844Z,54.72
2022-08-18T18:51:51.188Z,55.03
2022-08-18T18:56:57.177Z,54.92
2022-08-18T19:02:33.204Z,54.69
2022-08-18T19:07:33.493Z,54.75
2022-08-18T19:12:59.549Z,54.23
2022-08-18T19:17:58.967Z,54.67
2022-08-18T19:23:02.930Z,54.75
2022-08-18T19:28:25.556Z,54.69
2022-08-18T19:33:26.109Z,54.59
2022-08-18T19:38:32.597Z,56.18
2022-08-18T19:43:56.265Z,57.85
2022-08-18T19:48:59.416Z,57.84
2022-08-18T19:54:12.683Z,58.94
2022-08-18T19:59:19.455Z,58.68
2022-08-18T20:04:45.848Z,57.96
2022-08-18T20:09:45.485Z,58.10
2022-08-18T20:14:40.899Z,59.69
2022-08-18T20:19:59.550Z,60.20
2022-08-18T20:24:52.496Z,60.78
2022-08-18T20:29:47.220Z,60.51
2022-08-18T20:34:51.407Z,58.78
2022-08-18T20:39:44.014Z,58.65
2022-08-18T20:44:48.952Z,60.12
2022-08-18T20:50:19.294Z,60.44
2022-08-18T20:55:36.014Z,60.44
2022-08-18T21:00:36.619Z,60.25
2022-08-18T21:05:38.452Z,60.51
2022-08-18T21:10:34.745Z,61.49
2022-08-18T21:15:31.735Z,61.32
2022-08-18T21:20:25.654Z,61.65
2022-08-18T21:25:20.403Z,62.29
2022-08-18T21:30:27.483Z,62.50
2022-08-18T21:35:34.685Z,62.28
2022-08-18T21:40:36.116Z,61.72
2022-08-18T21:45:55.588Z,62.83
2022-08-18T21:51:17.759Z,62.13
2022-08-18T21:56:41.140Z,61.73
2022-08-18T22:01:36.243Z,62.23
2022-08-18T22:06:35.707Z,62.23
2022-08-18T22:12:07.260Z,61.96
2022-08-18T22:17:25.020Z,61.26
2022-08-18T22:22:39.634Z,61.21
2022-08-18T22:27:33.301Z,61.01
2022-08-18T22:32:27.637Z,61.69
2022-08-18T22:37:23.581Z,62.01
2022-08-18T22:42:20.794Z,63.00
2022-08-18T22:47:42.935Z,61.73
2022-08-18T22:52:42.420Z,61.85
2022-08-18T22:57:37.358Z,62.43
2022-08-18T23:02:31.797Z,61.42
2022-08-18T23:07:25.554Z,62.35
2022-08-18T23:12:19.022Z,62.69
2022-08-18T23:17:12.814Z,62.56
2022-08-18T23:22:06.482Z,61.80
2022-08-18T23:27:04.779Z,61.74
2022-08-18T23:32:00.193Z,61.50
2022-08-18T23:36:56.602Z,61.61
2022-08-18T23:41:53.848Z,61.77
2022-08-18T23:46:49.300Z,61.76
2022-08-18T23:51:45.625Z,61.51
2022-08-18T23:56:39.315Z,61.79
